createdAt,value
2022-08-21T00:00:45.570Z,100252.53
2022-08-21T00:03:13.888Z,100254.34
2022-08-21T00:05:46.637Z,100252.06
2022-08-21T00:08:15.229Z,100245.78
2022-08-21T00:10:44.627Z,100245.56
2022-08-21T00:13:13.774Z,100248.63
2022-08-21T00:15:47.636Z,100243.75
2022-08-21T00:18:18.375Z,100244.97
2022-08-21T00:20:48.146Z,100251.13
2022-08-21T00:23:16.916Z,100251.53
2022-08-21T00:25:46.091Z,100253.16
2022-08-21T00:28:15.280Z,100251.03
2022-08-21T00:30:44.423Z,100253.06
2022-08-21T00:33:13.107Z,100248.34
2022-08-21T00:35:43.525Z,100250.56
2022-08-21T00:38:12.165Z,100244.84
2022-08-21T00:40:51.793Z,100255.28
2022-08-21T00:43:23.361Z,100247.09
2022-08-21T00:45:52.099Z,100250.56
2022-08-21T00:48:20.917Z,100250.56
2022-08-21T00:51:18.457Z,100237.28
2022-08-21T00:53:48.097Z,100233.59
2022-08-21T00:56:24.752Z,100225.47
2022-08-21T00:58:57.107Z,100223.03
2022-08-21T01:01:25.748Z,100222.41
2022-08-21T01:03:54.132Z,100223.66
2022-08-21T01:06:22.578Z,100227.34
2022-08-21T01:08:51.512Z,100225.88
2022-08-21T01:11:21.222Z,100226.06
2022-08-21T01:13:50.175Z,100233.41
2022-08-21T01:16:22.073Z,100230.72
2022-08-21T01:18:51.630Z,100231.78
2022-08-21T01:21:28.309Z,100231.38
2022-08-21T01:23:58.454Z,100226.25
2022-08-21T01:26:33.735Z,100231.06
2022-08-21T01:29:47.626Z,100224.31
2022-08-21T01:32:19.961Z,100231.50
2022-08-21T01:34:50.889Z,100229.63
2022-08-21T01:37:20.777Z,100226.09
2022-08-21T01:39:49.204Z,100232.16
2022-08-21T01:42:17.868Z,100227.78
2022-08-21T01:44:46.120Z,100227.59
2022-08-21T01:47:18.222Z,100221.84
2022-08-21T01:49:46.648Z,100223.47
2022-08-21T01:52:16.976Z,100219.16
2022-08-21T01:54:45.279Z,100222.25
2022-08-21T01:57:26.295Z,100214.09
2022-08-21T01:59:55.090Z,100212.88
2022-08-21T02:02:23.769Z,100204.50
2022-08-21T02:04:52.246Z,100202.69
2022-08-21T02:07:20.556Z,100199.09
2022-08-21T02:09:48.842Z,100203.41
2022-08-21T02:12:17.072Z,100198.31
2022-08-21T02:14:48.228Z,100196.53
2022-08-21T02:17:16.461Z,100190.59
2022-08-21T02:19:44.641Z,100190.81
2022-08-21T02:22:15.872Z,100193.69
2022-08-21T02:24:53.728Z,100185.50
2022-08-21T02:27:27.565Z,100190.38
2022-08-21T02:29:59.572Z,100187.34
2022-08-21T02:32:27.831Z,100190.16
2022-08-21T02:34:56.189Z,100183.47
2022-08-21T02:37:25.053Z,100184.69
2022-08-21T02:39:53.438Z,100184.50
2022-08-21T02:42:22.250Z,100180.63
2022-08-21T02:44:50.477Z,100168.97
2022-08-21T02:47:18.706Z,100164.91
2022-08-21T02:49:46.891Z,100171.66
2022-08-21T02:52:15.408Z,100173.06
2022-08-21T02:54:43.645Z,100167.13
2022-08-21T02:57:11.851Z,100172.06
2022-08-21T02:59:41.775Z,100173.50
2022-08-21T03:02:10.203Z,100175.44
2022-08-21T03:04:38.530Z,100173.09
2022-08-21T03:07:06.730Z,100177.63
2022-08-21T03:09:39.562Z,100181.84
2022-08-21T03:12:19.373Z,100183.06
2022-08-21T03:14:47.577Z,100175.69
2022-08-21T03:17:15.799Z,100175.47
2022-08-21T03:19:44.069Z,100184.34
2022-08-21T03:22:12.292Z,100178.06
2022-08-21T03:24:40.471Z,100178.13
2022-08-21T03:27:16.561Z,100175.06
2022-08-21T03:29:44.800Z,100181.38
2022-08-21T03:32:12.999Z,100187.13
2022-08-21T03:34:42.307Z,100184.00
2022-08-21T03:37:11.378Z,100181.19
2022-08-21T03:39:39.730Z,100186.31
2022-08-21T03:42:08.340Z,100186.38
2022-08-21T03:44:40.677Z,100182.38
2022-08-21T03:47:09.007Z,100177.88
2022-08-21T03:49:37.752Z,100172.22
2022-08-21T03:52:06.242Z,100176.91
2022-08-21T03:54:34.710Z,100167.16
2022-08-21T03:57:02.975Z,100173.50
2022-08-21T03:59:31.629Z,100166.19
2022-08-21T04:02:04.681Z,100173.72
2022-08-21T04:04:34.136Z,100176.47
2022-08-21T04:07:03.198Z,100177.69
2022-08-21T04:09:31.880Z,100179.34
2022-08-21T04:12:01.300Z,100173.91
2022-08-21T04:14:29.478Z,100167.09
2022-08-21T04:16:58.339Z,100173.81
2022-08-21T04:19:26.556Z,100170.59
2022-08-21T04:21:54.854Z,100171.47
2022-08-21T04:24:23.923Z,100164.19
2022-08-21T04:26:52.179Z,100159.31
2022-08-21T04:29:20.878Z,100161.34
2022-08-21T04:31:49.852Z,100163.16
2022-08-21T04:34:18.005Z,100165.84
2022-08-21T04:36:46.271Z,100161.56
2022-08-21T04:39:14.535Z,100167.44
2022-08-21T04:41:44.006Z,100171.50
2022-08-21T04:44:12.187Z,100167.22
2022-08-21T04:46:40.803Z,100174.19
2022-08-21T04:49:08.967Z,100168.06
2022-08-21T04:51:39.239Z,100172.97
2022-08-21T04:54:16.681Z,100168.72
2022-08-21T04:57:06.328Z,100168.50
2022-08-21T04:59:47.075Z,100168.06
2022-08-21T05:02:18.523Z,100179.47
2022-08-21T05:04:55.507Z,100177.25
2022-08-21T05:07:42.368Z,100175.16
2022-08-21T05:10:12.529Z,100182.75
2022-08-21T05:12:43.840Z,100172.31
2022-08-21T05:15:16.100Z,100172.59
2022-08-21T05:17:52.562Z,100182.47
2022-08-21T05:20:27.614Z,100179.28
2022-08-21T05:22:56.151Z,100183.81
2022-08-21T05:25:24.440Z,100183.19
2022-08-21T05:27:52.721Z,100182.63
2022-08-21T05:30:21.830Z,100180.81
2022-08-21T05:32:50.071Z,100173.72
2022-08-21T05:35:18.366Z,100182.72
2022-08-21T05:37:47.034Z,100176.00
2022-08-21T05:40:22.624Z,100179.50
2022-08-21T05:42:54.203Z,100181.78
2022-08-21T05:45:42.285Z,100179.16
2022-08-21T05:48:24.730Z,100177.09
2022-08-21T05:50:53.821Z,100173.38
2022-08-21T05:53:24.774Z,100177.03
2022-08-21T05:55:53.459Z,100177.19
2022-08-21T05:58:23.892Z,100177.28
2022-08-21T06:00:53.870Z,100178.84
2022-08-21T06:03:28.708Z,100173.44
2022-08-21T06:05:57.299Z,100177.47
2022-08-21T06:08:26.227Z,100174.09
2022-08-21T06:10:56.337Z,100178.44
2022-08-21T06:13:25.442Z,100184.66
2022-08-21T06:16:02.779Z,100179.38
2022-08-21T06:18:31.058Z,100183.94
2022-08-21T06:20:59.252Z,100180.53
2022-08-21T06:23:33.096Z,100183.78
2022-08-21T06:26:03.908Z,100185.94
2022-08-21T06:28:32.651Z,100190.53
2022-08-21T06:31:01.041Z,100189.66
2022-08-21T06:33:32.489Z,100194.72
2022-08-21T06:36:01.154Z,100189.38
2022-08-21T06:38:29.478Z,100185.66
2022-08-21T06:40:57.895Z,100192.13
2022-08-21T06:43:37.867Z,100188.88
2022-08-21T06:46:09.186Z,100181.34
2022-08-21T06:48:37.471Z,100191.13
2022-08-21T06:51:06.235Z,100187.69
2022-08-21T06:53:34.603Z,100193.22
2022-08-21T06:56:03.683Z,100189.53
2022-08-21T06:58:32.289Z,100200.38
2022-08-21T07:01:02.038Z,100201.06
2022-08-21T07:03:37.882Z,100200.13
2022-08-21T07:06:07.632Z,100203.63
2022-08-21T07:08:36.813Z,100205.34
2022-08-21T07:11:11.973Z,100200.75
2022-08-21T07:13:40.177Z,100202.69
2022-08-21T07:16:09.232Z,100202.94
2022-08-21T07:18:37.475Z,100206.44
2022-08-21T07:21:08.343Z,100210.19
2022-08-21T07:23:42.936Z,100206.50
2022-08-21T07:26:12.839Z,100205.31
2022-08-21T07:28:41.114Z,100195.41
2022-08-21T07:31:11.622Z,100200.06
2022-08-21T07:33:40.169Z,100210.63
2022-08-21T07:36:08.660Z,100212.25
2022-08-21T07:38:36.861Z,100207.88
2022-08-21T07:41:13.808Z,100212.16
2022-08-21T07:43:46.066Z,100213.25
2022-08-21T07:46:15.352Z,100208.69
2022-08-21T07:48:44.247Z,100200.94
2022-08-21T07:51:14.711Z,100201.97
2022-08-21T07:53:43.788Z,100203.50
2022-08-21T07:56:12.184Z,100202.53
2022-08-21T07:58:40.411Z,100202.81
2022-08-21T08:01:08.860Z,100196.09
2022-08-21T08:03:38.200Z,100195.00
2022-08-21T08:06:08.011Z,100188.28
2022-08-21T08:08:36.288Z,100188.66
2022-08-21T08:11:04.512Z,100193.31
2022-08-21T08:13:32.810Z,100187.25
2022-08-21T08:16:00.995Z,100186.34
2022-08-21T08:18:30.092Z,100184.41
2022-08-21T08:20:58.249Z,100191.09
2022-08-21T08:23:27.308Z,100179.94
2022-08-21T08:25:55.505Z,100193.38
2022-08-21T08:28:25.293Z,100186.16
2022-08-21T08:30:53.444Z,100185.38
2022-08-21T08:33:22.157Z,100183.81
2022-08-21T08:35:52.444Z,100179.50
2022-08-21T08:38:25.060Z,100173.03
2022-08-21T08:41:19.806Z,100186.75
2022-08-21T08:43:55.056Z,100177.69
2022-08-21T08:46:57.374Z,100173.44
2022-08-21T08:49:35.147Z,100175.50
2022-08-21T08:52:39.744Z,100178.13
2022-08-21T08:55:18.642Z,100176.41
2022-08-21T08:57:52.897Z,100169.66
2022-08-21T09:00:23.767Z,100165.75
2022-08-21T09:02:56.604Z,100169.50
2022-08-21T09:05:24.816Z,100172.22
2022-08-21T09:08:03.895Z,100170.41
2022-08-21T09:10:59.498Z,100166.78
2022-08-21T09:13:39.973Z,100162.69
2022-08-21T09:16:14.245Z,100155.75
2022-08-21T09:18:51.318Z,100155.75
2022-08-21T09:21:51.031Z,100154.63
2022-08-21T09:24:58.114Z,100152.66
2022-08-21T09:27:26.689Z,100154.88
2022-08-21T09:29:58.490Z,100154.88
2022-08-21T09:32:37.743Z,100150.03
2022-08-21T09:35:11.294Z,100148.81
2022-08-21T09:37:58.582Z,100138.34
2022-08-21T09:40:43.263Z,100143.78
2022-08-21T09:43:18.227Z,100139.63
2022-08-21T09:45:47.930Z,100139.44
2022-08-21T09:48:20.303Z,100145.84
2022-08-21T09:50:49.858Z,100150.66
2022-08-21T09:53:20.340Z,100148.03
2022-08-21T09:56:14.371Z,100147.53
2022-08-21T09:58:45.806Z,100139.22
2022-08-21T10:01:26.151Z,100137.91
2022-08-21T10:04:05.102Z,100138.66
2022-08-21T10:06:35.861Z,100137.19
2022-08-21T10:09:21.057Z,100137.13
2022-08-21T10:12:11.062Z,100137.63
2022-08-21T10:14:42.841Z,100139.28
2022-08-21T10:17:34.028Z,100134.31
2022-08-21T10:20:09.140Z,100128.34
2022-08-21T10:23:14.675Z,100127.38
2022-08-21T10:25:57.202Z,100125.19
2022-08-21T10:28:50.295Z,100119.28
2022-08-21T10:31:45.478Z,100120.81
2022-08-21T10:34:40.608Z,100116.63
2022-08-21T10:37:14.827Z,100119.75
2022-08-21T10:40:01.877Z,100110.09
2022-08-21T10:42:47.930Z,100117.53
2022-08-21T10:45:31.596Z,100114.88
2022-08-21T10:48:07.319Z,100117.47
2022-08-21T10:50:44.787Z,100114.84
2022-08-21T10:53:46.228Z,100118.81
2022-08-21T10:56:23.448Z,100115.03
2022-08-21T10:58:59.418Z,100115.75
2022-08-21T11:01:49.836Z,100116.63
2022-08-21T11:04:49.985Z,100114.31
2022-08-21T11:07:35.443Z,100108.78
2022-08-21T11:10:25.618Z,100101.94
2022-08-21T11:13:03.994Z,100102.06
2022-08-21T11:15:32.178Z,100097.59
2022-08-21T11:18:35.418Z,100086.31
2022-08-21T11:21:28.296Z,100093.97
2022-08-21T11:24:11.901Z,100084.28
2022-08-21T11:26:50.155Z,100076.88
2022-08-21T11:29:29.330Z,100082.84
2022-08-21T11:32:26.837Z,100072.59
2022-08-21T11:35:15.835Z,100080.03
2022-08-21T11:37:49.643Z,100072.47
2022-08-21T11:40:20.643Z,100065.09
2022-08-21T11:43:23.896Z,100064.41
2022-08-21T11:45:51.980Z,100059.28
2022-08-21T11:48:22.864Z,100068.88
2022-08-21T11:50:53.034Z,100069.06
2022-08-21T11:53:29.930Z,100065.91
2022-08-21T11:56:27.933Z,100063.53
2022-08-21T11:59:28.683Z,100051.59
2022-08-21T12:01:57.494Z,100054.38
2022-08-21T12:04:32.537Z,100053.16
2022-08-21T12:07:29.874Z,100046.63
2022-08-21T12:09:59.879Z,100047.94
2022-08-21T12:12:35.306Z,100042.38
2022-08-21T12:15:21.723Z,100040.50
2022-08-21T12:18:30.118Z,100040.34
2022-08-21T12:21:06.679Z,100045.97
2022-08-21T12:24:04.169Z,100031.94
2022-08-21T12:26:36.876Z,100033.19
2022-08-21T12:29:15.143Z,100032.44
2022-08-21T12:31:52.736Z,100029.75
2022-08-21T12:34:24.720Z,100023.53
2022-08-21T12:37:01.577Z,100020.97
2022-08-21T12:39:34.130Z,100016.22
2022-08-21T12:42:23.474Z,100015.75
2022-08-21T12:45:04.094Z,100008.56
2022-08-21T12:47:48.953Z,100009.25
2022-08-21T12:50:24.360Z,100012.50
2022-08-21T12:53:20.907Z,100004.44
2022-08-21T12:55:49.619Z,100009.31
2022-08-21T12:58:25.599Z,100004.19
2022-08-21T13:01:12.312Z,100006.59
2022-08-21T13:03:42.017Z,100006.66
2022-08-21T13:06:17.773Z,100000.06
2022-08-21T13:08:48.694Z,100001.63
2022-08-21T13:11:32.646Z,100005.03
2022-08-21T13:14:04.892Z,99995.84
2022-08-21T13:16:36.168Z,99990.28
2022-08-21T13:19:07.986Z,99989.97
2022-08-21T13:21:43.900Z,99986.25
2022-08-21T13:24:40.741Z,99988.13
2022-08-21T13:27:04.620Z,99985.97
2022-08-21T13:29:35.953Z,99981.63
2022-08-21T13:32:20.596Z,99980.50
2022-08-21T13:34:48.853Z,99975.59
2022-08-21T13:37:26.161Z,99978.59
2022-08-21T13:39:54.721Z,99981.56
2022-08-21T13:42:23.789Z,99981.31
2022-08-21T13:44:54.968Z,99976.69
2022-08-21T13:47:23.300Z,99974.34
2022-08-21T13:49:58.989Z,99971.50
2022-08-21T13:52:28.422Z,99980.97
2022-08-21T13:55:13.401Z,99967.97
2022-08-21T13:57:41.649Z,99974.53
2022-08-21T14:00:36.356Z,99976.41
2022-08-21T14:03:10.328Z,99971.34
2022-08-21T14:05:46.812Z,99961.91
2022-08-21T14:08:38.409Z,99961.31
2022-08-21T14:11:10.968Z,99960.38
2022-08-21T14:13:45.087Z,99949.81
2022-08-21T14:16:16.519Z,99949.56
2022-08-21T14:19:09.375Z,99944.50
2022-08-21T14:21:46.954Z,99947.06
2022-08-21T14:24:22.667Z,99945.22
2022-08-21T14:26:57.509Z,99944.19
2022-08-21T14:29:32.674Z,99932.31
2022-08-21T14:32:29.358Z,99939.28
2022-08-21T14:35:00.908Z,99933.47
2022-08-21T14:37:32.204Z,99934.06
2022-08-21T14:40:00.566Z,99928.91
2022-08-21T14:42:29.711Z,99926.91
2022-08-21T14:45:02.373Z,99923.25
2022-08-21T14:47:30.549Z,99923.13
2022-08-21T14:49:59.507Z,99925.19
2022-08-21T14:52:27.654Z,99916.41
2022-08-21T14:54:55.810Z,99910.91
2022-08-21T14:57:32.425Z,99922.06
2022-08-21T15:00:02.089Z,99913.22
2022-08-21T15:02:31.016Z,99909.97
2022-08-21T15:04:59.171Z,99920.28
2022-08-21T15:07:27.372Z,99909.56
2022-08-21T15:09:58.488Z,99906.31
2022-08-21T15:12:26.902Z,99909.22
2022-08-21T15:14:55.119Z,99911.75
2022-08-21T15:17:23.499Z,99904.53
2022-08-21T15:19:51.714Z,99898.38
2022-08-21T15:22:27.814Z,99903.00
2022-08-21T15:24:56.747Z,99895.75
2022-08-21T15:27:25.008Z,99898.13
2022-08-21T15:29:55.173Z,99898.97
2022-08-21T15:32:28.281Z,99901.47
2022-08-21T15:34:58.170Z,99893.34
2022-08-21T15:37:26.788Z,99901.94
2022-08-21T15:39:55.498Z,99908.13
2022-08-21T15:42:25.535Z,99895.56
2022-08-21T15:44:55.583Z,99895.38
2022-08-21T15:47:30.458Z,99884.13
2022-08-21T15:49:58.754Z,99889.47
2022-08-21T15:52:27.336Z,99891.09
2022-08-21T15:54:55.523Z,99887.84
2022-08-21T15:57:27.095Z,99884.91
2022-08-21T16:00:10.958Z,99885.47
2022-08-21T16:02:42.962Z,99880.28
2022-08-21T16:05:13.081Z,99882.19
2022-08-21T16:07:41.719Z,99880.03
2022-08-21T16:10:10.264Z,99883.00
2022-08-21T16:12:44.613Z,99888.97
2022-08-21T16:15:20.338Z,99889.53
2022-08-21T16:17:50.708Z,99891.72
2022-08-21T16:20:26.607Z,99882.28
2022-08-21T16:22:57.236Z,99883.69
2022-08-21T16:25:25.691Z,99881.28
2022-08-21T16:28:03.578Z,99884.00
2022-08-21T16:30:32.638Z,99878.34
2022-08-21T16:33:04.019Z,99888.59
2022-08-21T16:35:32.958Z,99883.47
2022-08-21T16:38:01.611Z,99893.38
2022-08-21T16:40:32.545Z,99878.81
2022-08-21T16:43:00.867Z,99880.44
2022-08-21T16:45:33.076Z,99877.75
2022-08-21T16:48:04.492Z,99882.59
2022-08-21T16:50:32.703Z,99876.16
2022-08-21T16:53:01.043Z,99879.66
2022-08-21T16:55:29.294Z,99884.78
2022-08-21T16:57:57.587Z,99882.66
2022-08-21T17:00:25.920Z,99882.34
2022-08-21T17:02:56.296Z,99883.19
2022-08-21T17:05:24.592Z,99887.75
2022-08-21T17:07:52.794Z,99890.72
2022-08-21T17:10:21.635Z,99892.59
2022-08-21T17:12:56.110Z,99886.97
2022-08-21T17:15:28.291Z,99888.56
2022-08-21T17:17:57.574Z,99882.63
2022-08-21T17:20:26.632Z,99877.50
2022-08-21T17:22:54.941Z,99883.41
2022-08-21T17:25:23.372Z,99879.91
2022-08-21T17:27:52.512Z,99883.44
2022-08-21T17:30:21.724Z,99877.22
2022-08-21T17:32:54.375Z,99887.47
2022-08-21T17:35:22.894Z,99884.78
2022-08-21T17:37:51.086Z,99882.34
2022-08-21T17:40:19.631Z,99886.34
2022-08-21T17:42:48.715Z,99881.47
2022-08-21T17:45:20.707Z,99886.81
2022-08-21T17:47:49.243Z,99882.94
2022-08-21T17:50:22.688Z,99885.00
2022-08-21T17:52:52.669Z,99876.53
2022-08-21T17:55:21.707Z,99881.25
2022-08-21T17:57:52.146Z,99881.38
2022-08-21T18:00:23.916Z,99889.59
2022-08-21T18:03:07.540Z,99885.38
2022-08-21T18:05:36.178Z,99891.91
2022-08-21T18:08:04.590Z,99890.94
2022-08-21T18:10:33.249Z,99895.09
2022-08-21T18:13:06.819Z,99894.88
2022-08-21T18:15:35.583Z,99903.56
2022-08-21T18:18:05.593Z,99911.16
2022-08-21T18:20:33.823Z,99916.13
2022-08-21T18:23:02.364Z,99916.97
2022-08-21T18:25:30.856Z,99916.84
2022-08-21T18:28:02.466Z,99920.84
2022-08-21T18:30:31.020Z,99924.53
2022-08-21T18:32:59.380Z,99919.75
2022-08-21T18:35:27.835Z,99921.41
2022-08-21T18:38:00.765Z,99927.66
2022-08-21T18:40:29.361Z,99925.38
2022-08-21T18:42:59.704Z,99929.69
2022-08-21T18:45:28.170Z,99928.22
2022-08-21T18:47:58.685Z,99939.31
2022-08-21T18:50:29.042Z,99935.25
2022-08-21T18:52:57.529Z,99938.09
2022-08-21T18:55:27.418Z,99939.84
2022-08-21T18:57:58.739Z,99941.59
2022-08-21T19:00:31.355Z,99941.97
2022-08-21T19:03:00.616Z,99941.88
2022-08-21T19:05:29.181Z,99943.63
2022-08-21T19:07:57.456Z,99946.66
2022-08-21T19:10:29.551Z,99940.38
2022-08-21T19:13:01.063Z,99941.31
2022-08-21T19:15:30.000Z,99957.25
2022-08-21T19:17:59.087Z,99956.06
2022-08-21T19:20:32.738Z,99956.28
2022-08-21T19:23:06.677Z,99957.81
2022-08-21T19:25:39.651Z,99964.91
2022-08-21T19:28:15.321Z,99962.34
2022-08-21T19:31:04.730Z,99959.09
2022-08-21T19:33:37.499Z,99961.91
2022-08-21T19:36:09.800Z,99963.63
2022-08-21T19:38:38.701Z,99965.13
2022-08-21T19:41:10.337Z,99974.19
2022-08-21T19:43:44.500Z,99974.06
2022-08-21T19:46:15.714Z,99984.41
2022-08-21T19:48:46.793Z,99985.34
2022-08-21T19:51:35.435Z,99983.03
2022-08-21T19:54:04.092Z,99984.44
2022-08-21T19:59:24.940Z,99986.41
2022-08-21T20:01:54.314Z,99990.47
2022-08-21T20:04:23.287Z,99993.84
2022-08-21T20:06:53.641Z,100003.13
2022-08-21T20:09:22.279Z,100001.53
2022-08-21T20:11:56.316Z,100008.72
2022-08-21T20:14:33.047Z,100009.66
2022-08-21T20:17:08.283Z,100015.59
2022-08-21T20:19:40.602Z,100022.94
2022-08-21T20:22:09.927Z,100021.41
2022-08-21T20:24:39.019Z,100028.38
2022-08-21T20:27:07.489Z,100023.53
2022-08-21T20:29:39.348Z,100027.25
2022-08-21T20:32:11.896Z,100035.03
2022-08-21T20:34:45.056Z,100029.22
2022-08-21T20:37:13.730Z,100030.81
2022-08-21T20:40:02.189Z,100040.97
2022-08-21T20:42:31.164Z,100032.09
2022-08-21T20:45:01.289Z,100033.28
2022-08-21T20:47:31.831Z,100034.09
2022-08-21T20:50:09.174Z,100035.13
2022-08-21T20:52:41.686Z,100033.84
2022-08-21T20:55:17.363Z,100035.13
2022-08-21T20:58:04.033Z,100030.25
2022-08-21T21:00:40.222Z,100031.41
2022-08-21T21:03:48.891Z,100031.66
2022-08-21T21:06:25.455Z,100027.34
2022-08-21T21:09:14.700Z,100029.56
2022-08-21T21:11:56.407Z,100029.19
2022-08-21T21:14:55.429Z,100030.69
2022-08-21T21:17:41.367Z,100024.53
2022-08-21T21:20:26.256Z,100028.50
2022-08-21T21:23:03.406Z,100023.59
2022-08-21T21:25:53.957Z,100027.66
2022-08-21T21:28:30.867Z,100025.81
2022-08-21T21:30:59.139Z,100030.34
2022-08-21T21:33:32.397Z,100028.94
2022-08-21T21:36:16.180Z,100025.47
2022-08-21T21:38:57.973Z,100029.97
2022-08-21T21:41:44.890Z,100040.91
2022-08-21T21:44:18.984Z,100036.72
2022-08-21T21:47:01.459Z,100043.59
2022-08-21T21:53:19.735Z,100051.84
2022-08-21T21:56:01.537Z,100051.13
2022-08-21T21:58:29.719Z,100058.19
2022-08-21T22:01:08.232Z,100061.81
2022-08-21T22:03:52.986Z,100059.34
2022-08-21T22:06:39.228Z,100066.31
2022-08-21T22:09:22.941Z,100062.84
2022-08-21T22:11:57.115Z,100065.53
2022-08-21T22:14:41.866Z,100077.00
2022-08-21T22:17:35.898Z,100073.91
2022-08-21T22:20:15.173Z,100076.56
2022-08-21T22:22:45.436Z,100077.59
2022-08-21T22:25:21.527Z,100072.84
2022-08-21T22:28:00.515Z,100070.41
2022-08-21T22:30:45.465Z,100070.63
2022-08-21T22:33:21.541Z,100067.16
2022-08-21T22:35:51.977Z,100078.66
2022-08-21T22:38:26.123Z,100073.78
2022-08-21T22:41:17.239Z,100070.75
2022-08-21T22:43:53.495Z,100079.00
2022-08-21T22:46:58.944Z,100068.31
2022-08-21T22:49:39.288Z,100068.38
2022-08-21T22:52:24.383Z,100069.66
2022-08-21T22:54:56.476Z,100060.72
2022-08-21T22:57:29.344Z,100064.91
2022-08-21T23:00:11.352Z,100064.44
2022-08-21T23:02:58.497Z,100067.69
2022-08-21T23:05:30.677Z,100072.78
2022-08-21T23:11:17.900Z,100075.16
2022-08-21T23:13:49.311Z,100066.47
2022-08-21T23:16:35.499Z,100072.56
2022-08-21T23:19:30.948Z,100074.34
2022-08-21T23:22:15.866Z,100075.06
2022-08-21T23:25:05.484Z,100071.56
2022-08-21T23:27:36.434Z,100074.81
2022-08-21T23:30:21.944Z,100081.00
2022-08-21T23:32:56.242Z,100075.44
2022-08-21T23:36:10.336Z,100082.59
2022-08-21T23:38:54.000Z,100071.44
2022-08-21T23:41:37.419Z,100074.22
2022-08-21T23:44:25.505Z,100076.25
2022-08-21T23:46:57.651Z,100082.50
2022-08-21T23:49:25.772Z,100077.69
2022-08-21T23:52:15.384Z,100080.31
2022-08-21T23:55:13.794Z,100075.53
2022-08-21T23:57:48.262Z,100068.16
